sensor_id;sensor_type;location;lat;lon;timestamp;temperature;humidity
24176;DHT22;12324;48.146;11.502;2023-07-31T08:00:13;15.60;99.90
24176;DHT22;12324;48.146;11.502;2023-07-31T08:02:40;19.00;99.90
24176;DHT22;12324;48.146;11.502;2023-07-31T08:05:07;19.10;99.90
24176;DHT22;12324;48.146;11.502;2023-07-31T08:29:44;19.30;99.90
24176;DHT22;12324;48.146;11.502;2023-07-31T08:32:10;20.40;99.90
24176;DHT22;12324;48.146;11.502;2023-07-31T08:34:38;20.50;99.90
24176;DHT22;12324;48.146;11.502;2023-07-31T08:37:05;20.60;99.90
24176;DHT22;12324;48.146;11.502;2023-07-31T08:39:31;20.30;99.90
24176;DHT22;12324;48.146;11.502;2023-07-31T08:44:30;20.30;99.90
24176;DHT22;12324;48.146;11.502;2023-07-31T08:46:58;19.80;99.90
24176;DHT22;12324;48.146;11.502;2023-07-31T08:49:26;20.00;99.90
24176;DHT22;12324;48.146;11.502;2023-07-31T08:51:54;19.80;99.90
24176;DHT22;12324;48.146;11.502;2023-07-31T08:54:21;19.80;99.90
24176;DHT22;12324;48.146;11.502;2023-07-31T08:56:49;20.00;99.90
24176;DHT22;12324;48.146;11.502;2023-07-31T08:59:17;20.10;99.90
24176;DHT22;12324;48.146;11.502;2023-07-31T09:01:50;20.30;99.90
24176;DHT22;12324;48.146;11.502;2023-07-31T09:04:20;20.30;99.90
24176;DHT22;12324;48.146;11.502;2023-07-31T10:02:09;20.40;99.90
24176;DHT22;12324;48.146;11.502;2023-07-31T10:04:40;21.30;99.90
24176;DHT22;12324;48.146;11.502;2023-07-31T10:07:08;21.40;99.90
24176;DHT22;12324;48.146;11.502;2023-07-31T10:09:35;21.50;99.90
24176;DHT22;12324;48.146;11.502;2023-07-31T10:19:27;21.50;99.90
24176;DHT22;12324;48.146;11.502;2023-07-31T10:21:56;21.80;99.90
24176;DHT22;12324;48.146;11.502;2023-07-31T10:34:19;22.40;99.90
24176;DHT22;12324;48.146;11.502;2023-07-31T10:36:45;21.90;99.90
24176;DHT22;12324;48.146;11.502;2023-07-31T10:39:35;22.40;99.90
24176;DHT22;12324;48.146;11.502;2023-07-31T10:42:12;22.70;99.90
24176;DHT22;12324;48.146;11.502;2023-07-31T10:44:44;22.60;99.90
24176;DHT22;12324;48.146;11.502;2023-07-31T11:02:26;22.30;99.90
24176;DHT22;12324;48.146;11.502;2023-07-31T11:05:06;22.00;99.90
24176;DHT22;12324;48.146;11.502;2023-07-31T11:07:50;22.00;99.90
24176;DHT22;12324;48.146;11.502;2023-07-31T11:10:18;21.70;99.90
24176;DHT22;12324;48.146;11.502;2023-07-31T11:12:45;21.90;99.90
24176;DHT22;12324;48.146;11.502;2023-07-31T11:45:05;22.10;99.90
24176;DHT22;12324;48.146;11.502;2023-07-31T11:47:34;23.00;99.90
24176;DHT22;12324;48.146;11.502;2023-07-31T12:34:51;23.30;99.90
24176;DHT22;12324;48.146;11.502;2023-07-31T12:37:18;23.70;99.90
24176;DHT22;12324;48.146;11.502;2023-07-31T13:06:46;23.50;99.90
24176;DHT22;12324;48.146;11.502;2023-07-31T13:09:13;25.40;99.90
24176;DHT22;12324;48.146;11.502;2023-07-31T13:19:03;24.50;99.90
24176;DHT22;12324;48.146;11.502;2023-07-31T13:21:30;25.10;99.90
24176;DHT22;12324;48.146;11.502;2023-07-31T13:23:57;25.40;99.90
24176;DHT22;12324;48.146;11.502;2023-07-31T13:26:25;25.30;99.90
24176;DHT22;12324;48.146;11.502;2023-07-31T13:28:54;24.70;99.90
24176;DHT22;12324;48.146;11.502;2023-07-31T13:31:21;24.60;99.90
24176;DHT22;12324;48.146;11.502;2023-07-31T13:33:50;25.00;99.90
24176;DHT22;12324;48.146;11.502;2023-07-31T13:38:44;25.30;99.90
24176;DHT22;12324;48.146;11.502;2023-07-31T13:41:11;24.90;99.90
24176;DHT22;12324;48.146;11.502;2023-07-31T13:43:38;25.20;99.90
24176;DHT22;12324;48.146;11.502;2023-07-31T13:51:02;25.40;99.90
24176;DHT22;12324;48.146;11.502;2023-07-31T14:25:25;26.10;99.90
24176;DHT22;12324;48.146;11.502;2023-07-31T14:54:56;24.80;99.90
24176;DHT22;12324;48.146;11.502;2023-07-31T14:57:23;26.20;99.90
24176;DHT22;12324;48.146;11.502;2023-07-31T14:59:52;25.70;99.90
24176;DHT22;12324;48.146;11.502;2023-07-31T15:02:19;26.10;99.90
24176;DHT22;12324;48.146;11.502;2023-07-31T15:19:30;25.70;99.90
24176;DHT22;12324;48.146;11.502;2023-07-31T17:52:15;24.80;99.90
24176;DHT22;12324;48.146;11.502;2023-07-31T17:54:42;22.20;99.90
